createdAt,value
2018-08-09T00:00:39.169Z,0
2018-08-09T00:01:47.821Z,0
2018-08-09T00:02:56.458Z,0
2018-08-09T00:04:05.113Z,0
2018-08-09T00:05:13.754Z,0
2018-08-09T00:06:22.402Z,0
2018-08-09T00:07:31.041Z,0
2018-08-09T00:08:39.961Z,0
2018-08-09T00:09:48.614Z,0
2018-08-09T00:10:57.288Z,0
2018-08-09T00:12:05.923Z,0
2018-08-09T00:13:14.560Z,0
2018-08-09T00:14:23.210Z,0
2018-08-09T00:15:32.125Z,0
2018-08-09T00:16:41.039Z,0
2018-08-09T00:17:49.678Z,0
2018-08-09T00:18:58.605Z,0
2018-08-09T00:20:07.512Z,0
2018-08-09T00:21:16.168Z,0
2018-08-09T00:22:24.813Z,0
2018-08-09T00:23:33.458Z,0
2018-08-09T00:24:42.366Z,0
2018-08-09T00:25:51.022Z,0
2018-08-09T00:26:59.669Z,0
2018-08-09T00:28:08.310Z,0
2018-08-09T00:29:16.955Z,0
2018-08-09T00:30:25.602Z,0
2018-08-09T00:31:34.254Z,0
2018-08-09T00:32:42.907Z,0
2018-08-09T00:33:51.553Z,0
2018-08-09T00:35:00.455Z,0
2018-08-09T00:36:09.111Z,0
2018-08-09T00:37:18.025Z,0
2018-08-09T00:38:27.205Z,0
2018-08-09T00:39:36.377Z,0
2018-08-09T00:40:45.032Z,0
2018-08-09T00:41:53.675Z,0
2018-08-09T00:43:02.323Z,0
2018-08-09T00:44:10.961Z,0
2018-08-09T00:45:19.653Z,0
2018-08-09T00:46:28.262Z,0
2018-08-09T00:47:36.912Z,0
2018-08-09T00:48:45.828Z,0
2018-08-09T00:49:54.471Z,0
2018-08-09T00:51:03.119Z,0
2018-08-09T00:52:11.767Z,0
2018-08-09T00:53:20.418Z,0
2018-08-09T00:54:29.065Z,0
2018-08-09T00:55:38.276Z,0
2018-08-09T00:56:46.923Z,0
2018-08-09T00:57:55.575Z,0
2018-08-09T00:59:04.228Z,0
2018-08-09T01:00:13.143Z,0
2018-08-09T01:01:21.787Z,0
2018-08-09T01:02:30.442Z,0
2018-08-09T01:03:39.083Z,0
2018-08-09T01:04:47.732Z,0
2018-08-09T01:05:56.375Z,0
2018-08-09T01:07:05.020Z,0
2018-08-09T01:08:13.675Z,0
2018-08-09T01:09:22.592Z,0
2018-08-09T01:10:31.240Z,0
2018-08-09T01:11:39.883Z,0
2018-08-09T01:12:48.536Z,0
2018-08-09T01:13:57.183Z,0
2018-08-09T01:15:05.830Z,0
2018-08-09T01:16:14.472Z,0
2018-08-09T01:17:23.126Z,0
2018-08-09T01:18:31.770Z,0
2018-08-09T01:19:40.685Z,0
2018-08-09T01:20:49.651Z,0
2018-08-09T01:21:58.302Z,0
2018-08-09T01:23:06.952Z,0
2018-08-09T01:24:15.599Z,0
2018-08-09T01:25:24.256Z,0
2018-08-09T01:26:33.164Z,0
2018-08-09T01:27:41.810Z,0
2018-08-09T01:28:50.457Z,0
2018-08-09T01:29:59.109Z,0
2018-08-09T01:31:07.750Z,0
2018-08-09T01:32:16.398Z,0
2018-08-09T01:33:25.044Z,0
2018-08-09T01:34:33.694Z,0
2018-08-09T01:35:42.335Z,0
2018-08-09T01:36:50.984Z,0
2018-08-09T01:37:59.629Z,0
2018-08-09T01:39:08.283Z,0
2018-08-09T01:40:17.189Z,0
2018-08-09T01:41:25.836Z,0
2018-08-09T01:42:34.483Z,0
2018-08-09T01:43:43.127Z,0
2018-08-09T01:44:52.044Z,0
2018-08-09T01:46:00.689Z,0
2018-08-09T01:47:09.339Z,0
2018-08-09T01:48:18.021Z,0
2018-08-09T01:49:26.633Z,0
2018-08-09T01:50:35.277Z,0
2018-08-09T01:51:43.935Z,0
2018-08-09T01:52:52.838Z,0
2018-08-09T01:54:01.494Z,0
2018-08-09T01:55:10.139Z,0
2018-08-09T01:56:18.790Z,0
2018-08-09T01:57:27.430Z,0
2018-08-09T01:58:36.350Z,0
2018-08-09T01:59:45.264Z,0
2018-08-09T02:00:53.916Z,0
2018-08-09T02:02:02.565Z,0
2018-08-09T02:03:11.203Z,0
2018-08-09T02:04:20.117Z,0
2018-08-09T02:05:28.758Z,0
2018-08-09T02:06:37.427Z,0
2018-08-09T02:07:46.061Z,0
2018-08-09T02:08:55.020Z,0
2018-08-09T02:10:03.920Z,0
2018-08-09T02:11:12.844Z,0
2018-08-09T02:12:21.482Z,0
2018-08-09T02:13:30.132Z,0
2018-08-09T02:14:38.781Z,0
2018-08-09T02:15:47.445Z,0
2018-08-09T02:16:56.089Z,0
2018-08-09T02:18:04.731Z,0
2018-08-09T02:19:13.377Z,0
2018-08-09T02:20:22.024Z,0
2018-08-09T02:21:30.681Z,0
2018-08-09T02:22:39.322Z,0
2018-08-09T02:23:47.973Z,0
2018-08-09T02:24:56.609Z,0
2018-08-09T02:26:05.267Z,0
2018-08-09T02:27:14.432Z,0
2018-08-09T02:28:23.085Z,0
2018-08-09T02:29:31.721Z,0
2018-08-09T02:30:40.384Z,0
2018-08-09T02:31:49.297Z,0
2018-08-09T02:32:57.947Z,0
2018-08-09T02:34:06.587Z,0
2018-08-09T02:35:15.255Z,0
2018-08-09T02:36:23.897Z,0
2018-08-09T02:37:32.547Z,0
2018-08-09T02:38:41.739Z,0
2018-08-09T02:39:50.379Z,0
2018-08-09T02:40:59.035Z,0
2018-08-09T02:42:08.215Z,0
2018-08-09T02:43:16.873Z,0
2018-08-09T02:44:25.531Z,0
2018-08-09T02:45:34.429Z,0
2018-08-09T02:46:43.132Z,0
2018-08-09T02:47:51.724Z,0
2018-08-09T02:49:00.385Z,0
2018-08-09T02:50:09.032Z,0
2018-08-09T02:51:18.228Z,0
2018-08-09T02:52:26.883Z,0
2018-08-09T02:53:35.532Z,0
2018-08-09T02:54:44.183Z,0
2018-08-09T02:55:53.098Z,0
2018-08-09T02:57:01.745Z,0
2018-08-09T02:58:10.383Z,0
2018-08-09T02:59:19.035Z,0
2018-08-09T03:00:27.677Z,0
2018-08-09T03:01:36.333Z,0
2018-08-09T03:02:45.517Z,0
2018-08-09T03:03:54.168Z,0
2018-08-09T03:05:03.076Z,0
2018-08-09T03:06:11.996Z,0
2018-08-09T03:07:20.910Z,0
2018-08-09T03:08:29.827Z,0
2018-08-09T03:09:38.472Z,0
2018-08-09T03:10:47.129Z,0
2018-08-09T03:11:55.778Z,0
2018-08-09T03:13:04.419Z,0
2018-08-09T03:14:13.065Z,0
2018-08-09T03:15:21.710Z,0
2018-08-09T03:16:30.367Z,0
2018-08-09T03:17:39.011Z,0
2018-08-09T03:18:47.667Z,0
2018-08-09T03:19:56.305Z,0
2018-08-09T03:21:04.961Z,0
2018-08-09T03:22:13.603Z,0
2018-08-09T03:23:22.253Z,0
2018-08-09T03:24:30.995Z,0
2018-08-09T03:25:39.548Z,0
2018-08-09T03:26:48.192Z,0
2018-08-09T03:27:56.839Z,0
2018-08-09T03:29:05.475Z,0
2018-08-09T03:30:14.125Z,0
2018-08-09T03:31:22.786Z,0
2018-08-09T03:32:31.435Z,0
2018-08-09T03:33:40.086Z,0
2018-08-09T03:34:48.722Z,0
2018-08-09T03:35:57.383Z,0
2018-08-09T03:37:06.283Z,0
2018-08-09T03:38:14.939Z,0
2018-08-09T03:39:23.838Z,0
2018-08-09T03:40:32.487Z,0
2018-08-09T03:41:41.138Z,0
2018-08-09T03:42:49.788Z,0
2018-08-09T03:43:58.431Z,0
2018-08-09T03:45:07.089Z,0
2018-08-09T03:46:15.735Z,0
2018-08-09T03:47:24.645Z,0
2018-08-09T03:48:33.290Z,0
2018-08-09T03:49:41.937Z,0
2018-08-09T03:50:50.584Z,0
2018-08-09T03:51:59.493Z,0
2018-08-09T03:53:08.143Z,0
2018-08-09T03:54:16.790Z,0
2018-08-09T03:55:25.697Z,0
2018-08-09T03:56:34.339Z,0
2018-08-09T03:57:42.991Z,0
2018-08-09T03:58:51.639Z,0
2018-08-09T04:00:00.285Z,0
2018-08-09T04:01:09.186Z,5
2018-08-09T04:02:17.847Z,5
2018-08-09T04:03:26.749Z,5
2018-08-09T04:04:35.397Z,5
2018-08-09T04:05:44.039Z,5
2018-08-09T04:06:52.687Z,5
2018-08-09T04:08:01.331Z,5
2018-08-09T04:09:09.981Z,10
2018-08-09T04:10:18.630Z,10
2018-08-09T04:11:27.533Z,10
2018-08-09T04:12:36.447Z,10
2018-08-09T04:13:45.093Z,15
2018-08-09T04:14:53.743Z,15
2018-08-09T04:16:02.385Z,15
2018-08-09T04:17:11.032Z,15
2018-08-09T04:18:19.678Z,15
2018-08-09T04:19:28.327Z,15
2018-08-09T04:20:36.970Z,20
2018-08-09T04:21:45.625Z,20
2018-08-09T04:22:54.269Z,20
2018-08-09T04:24:02.919Z,25
2018-08-09T04:25:11.566Z,25
2018-08-09T04:26:20.231Z,25
2018-08-09T04:27:28.858Z,30
2018-08-09T04:28:37.504Z,30
2018-08-09T04:29:46.153Z,30
2018-08-09T04:30:54.796Z,25
2018-08-09T04:32:03.697Z,25
2018-08-09T04:33:12.343Z,25
2018-08-09T04:34:20.989Z,25
2018-08-09T04:35:29.635Z,25
2018-08-09T04:36:38.550Z,25
2018-08-09T04:37:47.238Z,30
2018-08-09T04:38:55.837Z,30
2018-08-09T04:40:04.481Z,30
2018-08-09T04:41:13.126Z,35
2018-08-09T04:42:21.782Z,40
2018-08-09T04:43:30.426Z,45
2018-08-09T04:44:39.346Z,45
2018-08-09T04:45:47.988Z,50
2018-08-09T04:46:56.634Z,50
2018-08-09T04:48:05.289Z,50
2018-08-09T04:49:13.938Z,50
2018-08-09T04:50:22.580Z,55
2018-08-09T04:51:31.214Z,55
2018-08-09T04:52:39.872Z,55
2018-08-09T04:53:48.511Z,60
2018-08-09T04:54:57.164Z,60
2018-08-09T04:56:06.063Z,65
2018-08-09T04:57:14.718Z,70
2018-08-09T04:58:23.413Z,80
2018-08-09T04:59:32.013Z,85
2018-08-09T05:00:40.649Z,90
2018-08-09T05:01:49.297Z,80
2018-08-09T05:02:57.949Z,70
2018-08-09T05:04:06.598Z,55
2018-08-09T05:05:15.246Z,45
2018-08-09T05:06:24.156Z,40
2018-08-09T05:07:32.807Z,40
2018-08-09T05:08:41.447Z,40
2018-08-09T05:09:50.103Z,40
2018-08-09T05:10:58.740Z,40
2018-08-09T05:12:07.654Z,40
2018-08-09T05:13:16.295Z,40
2018-08-09T05:14:24.955Z,40
2018-08-09T05:15:33.592Z,35
2018-08-09T05:16:42.242Z,35
2018-08-09T05:17:50.892Z,40
2018-08-09T05:18:59.547Z,45
2018-08-09T05:20:08.455Z,45
2018-08-09T05:21:17.357Z,50
2018-08-09T05:22:26.002Z,50
2018-08-09T05:23:34.648Z,50
2018-08-09T05:24:43.568Z,50
2018-08-09T05:25:52.209Z,55
2018-08-09T05:27:00.860Z,55
2018-08-09T05:28:09.498Z,55
2018-08-09T05:29:18.430Z,55
2018-08-09T05:30:27.333Z,50
2018-08-09T05:31:35.986Z,55
2018-08-09T05:32:44.621Z,60
2018-08-09T05:33:53.278Z,55
2018-08-09T05:35:01.921Z,55
2018-08-09T05:36:10.572Z,55
2018-08-09T05:37:19.207Z,50
2018-08-09T05:38:27.858Z,45
2018-08-09T05:39:36.508Z,45
2018-08-09T05:40:45.155Z,45
2018-08-09T05:41:53.802Z,45
2018-08-09T05:43:02.443Z,45
2018-08-09T05:44:11.094Z,45
2018-08-09T05:45:19.846Z,45
2018-08-09T05:46:28.391Z,45
2018-08-09T05:47:37.033Z,45
2018-08-09T05:48:45.679Z,40
2018-08-09T05:49:54.331Z,45
2018-08-09T05:51:02.980Z,55
2018-08-09T05:52:11.620Z,60
2018-08-09T05:53:20.660Z,70
2018-08-09T05:54:29.639Z,75
2018-08-09T05:55:38.291Z,80
2018-08-09T05:56:47.202Z,80
2018-08-09T05:57:55.851Z,75
2018-08-09T05:59:04.495Z,80
2018-08-09T06:00:13.140Z,80
2018-08-09T06:01:21.791Z,80
2018-08-09T06:02:30.436Z,70
2018-08-09T06:03:39.084Z,70
2018-08-09T06:04:47.727Z,70
2018-08-09T06:05:56.725Z,65
2018-08-09T06:07:05.632Z,65
2018-08-09T06:08:14.545Z,75
2018-08-09T06:09:23.448Z,85
2018-08-09T06:10:32.099Z,90
2018-08-09T06:11:40.743Z,95
2018-08-09T06:12:49.396Z,95
2018-08-09T06:13:58.306Z,90
2018-08-09T06:15:06.965Z,80
2018-08-09T06:16:15.610Z,70
2018-08-09T06:17:24.260Z,60
2018-08-09T06:18:33.171Z,50
2018-08-09T06:19:41.817Z,50
2018-08-09T06:20:50.730Z,50
2018-08-09T06:21:59.380Z,45
2018-08-09T06:23:08.033Z,40
2018-08-09T06:24:16.676Z,40
2018-08-09T06:25:25.323Z,35
2018-08-09T06:26:33.996Z,35
2018-08-09T06:27:42.630Z,35
2018-08-09T06:28:51.621Z,40
2018-08-09T06:30:00.278Z,45
2018-08-09T06:31:08.920Z,55
2018-08-09T06:32:17.838Z,60
2018-08-09T06:33:26.515Z,65
2018-08-09T06:34:35.131Z,75
2018-08-09T06:35:43.778Z,90
2018-08-09T06:36:52.422Z,90
2018-08-09T06:38:01.073Z,100
2018-08-09T06:39:09.721Z,105
2018-08-09T06:40:18.367Z,110
2018-08-09T06:41:27.017Z,100
2018-08-09T06:42:35.660Z,95
2018-08-09T06:43:44.313Z,100
2018-08-09T06:44:53.223Z,110
2018-08-09T06:46:01.877Z,125
2018-08-09T06:47:10.520Z,155
2018-08-09T06:48:19.437Z,160
2018-08-09T06:49:28.081Z,145
2018-08-09T06:50:36.734Z,130
2018-08-09T06:51:45.384Z,125
2018-08-09T06:52:54.289Z,135
2018-08-09T06:54:02.937Z,140
2018-08-09T06:55:11.583Z,110
2018-08-09T06:56:20.271Z,85
2018-08-09T06:57:28.888Z,60
2018-08-09T06:58:37.538Z,55
2018-08-09T06:59:46.181Z,60
2018-08-09T07:00:54.831Z,65
2018-08-09T07:02:03.477Z,65
2018-08-09T07:03:12.126Z,65
2018-08-09T07:04:20.769Z,60
2018-08-09T07:05:29.424Z,60
2018-08-09T07:06:38.066Z,60
2018-08-09T07:07:46.717Z,55
2018-08-09T07:08:55.360Z,55
2018-08-09T07:10:04.010Z,60
2018-08-09T07:11:12.658Z,70
2018-08-09T07:12:21.310Z,80
2018-08-09T07:13:30.480Z,85
2018-08-09T07:14:39.122Z,80
2018-08-09T07:15:47.772Z,80
2018-08-09T07:16:56.422Z,105
2018-08-09T07:18:05.073Z,125
2018-08-09T07:19:13.715Z,135
2018-08-09T07:20:22.726Z,150
2018-08-09T07:21:31.356Z,150
2018-08-09T07:22:40.009Z,125
2018-08-09T07:23:48.653Z,95
2018-08-09T07:24:57.303Z,90
2018-08-09T07:26:05.951Z,95
2018-08-09T07:27:14.602Z,95
2018-08-09T07:28:23.246Z,100
2018-08-09T07:29:31.894Z,100
2018-08-09T07:30:40.545Z,110
2018-08-09T07:31:49.183Z,115
2018-08-09T07:32:57.834Z,120
2018-08-09T07:34:06.476Z,105
2018-08-09T07:35:15.124Z,90
2018-08-09T07:36:23.766Z,80
2018-08-09T07:37:32.424Z,80
2018-08-09T07:38:41.066Z,95
2018-08-09T07:39:50.110Z,110
2018-08-09T07:40:58.690Z,130
2018-08-09T07:42:07.349Z,155
2018-08-09T07:43:15.997Z,165
2018-08-09T07:44:24.650Z,165
2018-08-09T07:45:33.547Z,180
2018-08-09T07:46:42.188Z,195
2018-08-09T07:47:50.846Z,210
2018-08-09T07:48:59.493Z,245
2018-08-09T07:50:08.144Z,265
2018-08-09T07:51:16.786Z,315
2018-08-09T07:52:25.484Z,350
2018-08-09T07:53:34.087Z,360
2018-08-09T07:54:42.739Z,330
2018-08-09T07:55:51.380Z,315
2018-08-09T07:57:00.047Z,320
2018-08-09T07:58:08.695Z,305
2018-08-09T07:59:17.611Z,295
2018-08-09T08:00:26.262Z,320
2018-08-09T08:01:34.914Z,320
2018-08-09T08:02:43.562Z,290
2018-08-09T08:03:52.224Z,255
2018-08-09T08:05:00.868Z,245
2018-08-09T08:06:09.564Z,210
2018-08-09T08:07:18.161Z,200
2018-08-09T08:08:26.863Z,190
2018-08-09T08:09:35.471Z,185
2018-08-09T08:10:44.386Z,180
2018-08-09T08:11:53.039Z,175
2018-08-09T08:13:01.940Z,170
2018-08-09T08:14:10.599Z,160
2018-08-09T08:15:19.245Z,150
2018-08-09T08:16:27.898Z,145
2018-08-09T08:17:36.540Z,140
2018-08-09T08:18:45.468Z,135
2018-08-09T08:19:54.122Z,130
2018-08-09T08:21:02.767Z,130
2018-08-09T08:22:11.410Z,130
2018-08-09T08:23:20.327Z,130
2018-08-09T08:24:28.991Z,135
2018-08-09T08:25:37.635Z,140
2018-08-09T08:26:46.357Z,135
2018-08-09T08:27:55.195Z,140
2018-08-09T08:29:03.849Z,150
2018-08-09T08:30:12.492Z,170
2018-08-09T08:31:21.150Z,195
2018-08-09T08:32:29.790Z,215
2018-08-09T08:33:38.444Z,225
2018-08-09T08:34:47.089Z,245
2018-08-09T08:35:55.746Z,260
2018-08-09T08:37:04.395Z,275
2018-08-09T08:38:13.053Z,295
2018-08-09T08:39:21.962Z,310
2018-08-09T08:40:30.616Z,315
2018-08-09T08:41:39.429Z,320
2018-08-09T08:42:48.359Z,315
2018-08-09T08:43:57.007Z,345
2018-08-09T08:45:05.655Z,375
2018-08-09T08:46:14.312Z,390
2018-08-09T08:47:22.974Z,350
2018-08-09T08:48:31.613Z,335
2018-08-09T08:49:40.257Z,315
2018-08-09T08:50:48.912Z,325
2018-08-09T08:51:57.560Z,315
2018-08-09T08:53:06.267Z,315
2018-08-09T08:54:14.861Z,340
2018-08-09T08:55:23.776Z,340
2018-08-09T08:56:32.428Z,270
2018-08-09T08:57:41.344Z,260
2018-08-09T08:58:49.989Z,255
2018-08-09T08:59:58.956Z,270
2018-08-09T09:01:07.603Z,240
2018-08-09T09:02:16.560Z,235
2018-08-09T09:03:25.475Z,240
2018-08-09T09:04:34.603Z,245
2018-08-09T09:05:43.254Z,245
2018-08-09T09:06:51.905Z,250
2018-08-09T09:08:00.559Z,260
2018-08-09T09:09:09.308Z,260
2018-08-09T09:10:17.966Z,255
2018-08-09T09:11:26.609Z,240
2018-08-09T09:12:35.267Z,235
2018-08-09T09:13:44.298Z,270
2018-08-09T09:14:53.160Z,270
2018-08-09T09:16:01.809Z,270
2018-08-09T09:17:10.472Z,275
2018-08-09T09:18:19.121Z,270
2018-08-09T09:19:27.779Z,255
2018-08-09T09:20:36.428Z,245
2018-08-09T09:21:45.341Z,235
2018-08-09T09:22:53.998Z,220
2018-08-09T09:24:02.648Z,230
2018-08-09T09:25:11.300Z,225
2018-08-09T09:26:19.961Z,205
2018-08-09T09:27:28.608Z,175
2018-08-09T09:28:39.030Z,170
2018-08-09T09:29:47.706Z,190
2018-08-09T09:30:56.353Z,190
2018-08-09T09:32:05.271Z,190
2018-08-09T09:33:14.053Z,190
2018-08-09T09:34:22.977Z,200
2018-08-09T09:35:31.623Z,210
2018-08-09T09:36:40.275Z,220
2018-08-09T09:37:48.930Z,285
2018-08-09T09:38:57.590Z,245
2018-08-09T09:40:06.242Z,255
2018-08-09T09:41:14.893Z,285
2018-08-09T09:42:23.546Z,285
2018-08-09T09:43:32.191Z,275
2018-08-09T09:44:41.129Z,265
2018-08-09T09:45:49.771Z,275
2018-08-09T09:46:58.430Z,270
2018-08-09T09:48:07.335Z,255
2018-08-09T09:49:15.999Z,260
2018-08-09T09:50:24.638Z,315
2018-08-09T09:51:33.293Z,335
2018-08-09T09:52:42.471Z,400
2018-08-09T09:53:51.132Z,410
2018-08-09T09:55:00.144Z,365
2018-08-09T09:56:08.744Z,375
2018-08-09T09:57:17.396Z,375
2018-08-09T09:58:26.049Z,370
2018-08-09T09:59:34.708Z,400
2018-08-09T10:00:43.356Z,365
2018-08-09T10:01:52.081Z,345
2018-08-09T10:03:01.058Z,320
2018-08-09T10:04:09.720Z,310
2018-08-09T10:05:18.365Z,315
2018-08-09T10:06:27.023Z,315
2018-08-09T10:07:35.668Z,305
2018-08-09T10:08:44.334Z,320
2018-08-09T10:09:53.248Z,345
2018-08-09T10:11:01.904Z,370
2018-08-09T10:12:10.818Z,380
2018-08-09T10:13:19.475Z,385
2018-08-09T10:14:28.131Z,370
2018-08-09T10:15:36.788Z,345
2018-08-09T10:16:45.446Z,345
2018-08-09T10:17:54.082Z,345
2018-08-09T10:19:02.739Z,340
2018-08-09T10:20:11.389Z,335
2018-08-09T10:21:20.315Z,350
2018-08-09T10:22:28.961Z,395
2018-08-09T10:23:37.882Z,390
2018-08-09T10:24:46.529Z,400
2018-08-09T10:25:55.189Z,375
2018-08-09T10:27:03.834Z,330
2018-08-09T10:28:12.492Z,275
2018-08-09T10:29:21.150Z,255
2018-08-09T10:30:29.813Z,235
2018-08-09T10:31:38.462Z,230
2018-08-09T10:32:47.111Z,225
2018-08-09T10:33:55.768Z,215
2018-08-09T10:35:04.424Z,220
2018-08-09T10:36:13.068Z,225
2018-08-09T10:37:21.726Z,220
2018-08-09T10:38:30.379Z,210
2018-08-09T10:39:39.040Z,200
2018-08-09T10:40:47.681Z,235
2018-08-09T10:41:56.340Z,240
2018-08-09T10:43:04.994Z,220
2018-08-09T10:44:13.655Z,220
2018-08-09T10:45:22.300Z,215
2018-08-09T10:46:30.966Z,215
2018-08-09T10:47:39.880Z,215
2018-08-09T10:48:48.541Z,210
2018-08-09T10:49:57.193Z,210
2018-08-09T10:51:05.840Z,210
2018-08-09T10:52:14.492Z,210
2018-08-09T10:53:23.142Z,215
2018-08-09T10:54:31.805Z,215
2018-08-09T10:55:40.481Z,220
2018-08-09T10:56:49.448Z,220
2018-08-09T10:57:58.100Z,220
2018-08-09T10:59:06.758Z,225
2018-08-09T11:00:15.406Z,225
2018-08-09T11:01:24.067Z,240
2018-08-09T11:02:32.712Z,215
2018-08-09T11:03:41.638Z,210
2018-08-09T11:04:50.286Z,195
2018-08-09T11:05:58.944Z,205
2018-08-09T11:07:07.852Z,235
2018-08-09T11:08:16.770Z,260
2018-08-09T11:09:25.429Z,265
2018-08-09T11:10:34.342Z,285
2018-08-09T11:11:43.269Z,305
2018-08-09T11:12:52.695Z,315
2018-08-09T11:14:01.355Z,325
2018-08-09T11:15:10.020Z,340
2018-08-09T11:16:18.937Z,375
2018-08-09T11:17:27.849Z,375
2018-08-09T11:18:36.512Z,380
2018-08-09T11:19:45.423Z,360
2018-08-09T11:20:54.085Z,355
2018-08-09T11:22:02.729Z,350
2018-08-09T11:23:11.384Z,380
2018-08-09T11:24:20.038Z,385
2018-08-09T11:25:28.700Z,445
2018-08-09T11:26:37.350Z,425
2018-08-09T11:27:46.265Z,440
2018-08-09T11:28:54.915Z,390
2018-08-09T11:30:03.568Z,400
2018-08-09T11:31:12.235Z,370
2018-08-09T11:32:20.886Z,330
2018-08-09T11:33:29.544Z,370
2018-08-09T11:34:38.190Z,345
2018-08-09T11:35:46.850Z,315
2018-08-09T11:36:55.512Z,295
2018-08-09T11:38:04.167Z,280
2018-08-09T11:39:12.818Z,255
2018-08-09T11:40:21.476Z,245
2018-08-09T11:41:30.127Z,235
2018-08-09T11:42:38.784Z,220
2018-08-09T11:43:47.688Z,225
2018-08-09T11:44:56.359Z,225
2018-08-09T11:46:05.020Z,225
2018-08-09T11:47:13.676Z,230
2018-08-09T11:48:22.334Z,225
2018-08-09T11:49:30.987Z,225
2018-08-09T11:50:39.982Z,225
2018-08-09T11:51:48.637Z,220
2018-08-09T11:52:57.846Z,220
2018-08-09T11:54:06.497Z,220
2018-08-09T11:55:15.152Z,215
2018-08-09T11:56:23.879Z,225
2018-08-09T11:57:32.737Z,220
2018-08-09T11:58:41.689Z,220
2018-08-09T11:59:50.610Z,220
2018-08-09T12:00:59.259Z,220
2018-08-09T12:02:07.917Z,225
2018-08-09T12:03:16.594Z,225
2018-08-09T12:04:25.268Z,220
2018-08-09T12:05:33.882Z,225
2018-08-09T12:06:42.530Z,220
2018-08-09T12:07:51.188Z,210
2018-08-09T12:08:59.841Z,220
2018-08-09T12:10:08.495Z,225
2018-08-09T12:11:17.143Z,230
2018-08-09T12:12:26.074Z,230
2018-08-09T12:13:34.755Z,225
2018-08-09T12:14:43.376Z,225
2018-08-09T12:15:52.550Z,230
2018-08-09T12:17:01.216Z,240
2018-08-09T12:18:09.863Z,245
2018-08-09T12:19:18.522Z,240
2018-08-09T12:20:27.169Z,235
2018-08-09T12:21:35.830Z,225
2018-08-09T12:22:44.754Z,220
2018-08-09T12:23:53.414Z,215
2018-08-09T12:25:02.066Z,195
2018-08-09T12:26:10.716Z,195
2018-08-09T12:27:19.370Z,200
2018-08-09T12:28:28.026Z,205
2018-08-09T12:29:36.685Z,210
2018-08-09T12:30:45.343Z,210
2018-08-09T12:31:53.992Z,225
2018-08-09T12:33:02.650Z,255
2018-08-09T12:34:11.560Z,280
2018-08-09T12:35:20.222Z,295
2018-08-09T12:36:28.887Z,315
2018-08-09T12:37:37.532Z,315
2018-08-09T12:38:46.178Z,315
2018-08-09T12:39:54.840Z,310
2018-08-09T12:41:03.761Z,305
2018-08-09T12:42:12.419Z,300
2018-08-09T12:43:21.079Z,300
2018-08-09T12:44:29.724Z,295
2018-08-09T12:45:38.833Z,285
2018-08-09T12:46:47.384Z,280
2018-08-09T12:47:56.047Z,275
2018-08-09T12:49:04.692Z,280
2018-08-09T12:50:13.357Z,275
2018-08-09T12:51:22.008Z,265
2018-08-09T12:52:30.672Z,265
2018-08-09T12:53:39.318Z,265
2018-08-09T12:54:47.974Z,275
2018-08-09T12:55:56.626Z,290
2018-08-09T12:57:05.556Z,290
2018-08-09T12:58:14.475Z,305
2018-08-09T12:59:23.402Z,310
2018-08-09T13:00:32.053Z,310
2018-08-09T13:01:40.704Z,310
2018-08-09T13:02:49.371Z,310
2018-08-09T13:03:58.023Z,305
2018-08-09T13:05:06.683Z,305
2018-08-09T13:06:15.327Z,305
2018-08-09T13:07:23.988Z,300
2018-08-09T13:08:32.645Z,295
2018-08-09T13:09:41.567Z,290
2018-08-09T13:10:50.218Z,290
2018-08-09T13:11:59.143Z,280
2018-08-09T13:13:07.797Z,275
2018-08-09T13:14:16.453Z,270
2018-08-09T13:15:25.097Z,265
2018-08-09T13:16:33.758Z,260
2018-08-09T13:17:42.683Z,260
2018-08-09T13:18:51.600Z,245
2018-08-09T13:20:00.257Z,235
2018-08-09T13:21:08.901Z,225
2018-08-09T13:22:17.824Z,210
2018-08-09T13:23:26.557Z,195
2018-08-09T13:24:35.521Z,190
2018-08-09T13:25:44.166Z,175
2018-08-09T13:26:52.825Z,165
2018-08-09T13:28:01.474Z,160
2018-08-09T13:29:10.136Z,155
2018-08-09T13:30:19.093Z,150
2018-08-09T13:31:27.724Z,155
2018-08-09T13:32:36.642Z,155
2018-08-09T13:33:45.791Z,155
2018-08-09T13:34:54.320Z,155
2018-08-09T13:36:02.975Z,140
2018-08-09T13:37:11.626Z,130
2018-08-09T13:38:20.277Z,120
2018-08-09T13:39:29.198Z,115
2018-08-09T13:40:37.852Z,110
2018-08-09T13:41:46.503Z,105
2018-08-09T13:42:55.156Z,110
2018-08-09T13:44:03.813Z,120
2018-08-09T13:45:12.469Z,155
2018-08-09T13:46:21.388Z,195
2018-08-09T13:47:30.037Z,225
2018-08-09T13:48:38.967Z,245
2018-08-09T13:49:47.615Z,255
2018-08-09T13:50:56.535Z,260
2018-08-09T13:52:05.188Z,255
2018-08-09T13:53:13.842Z,245
2018-08-09T13:54:22.498Z,230
2018-08-09T13:55:31.417Z,210
2018-08-09T13:56:40.333Z,190
2018-08-09T13:57:48.995Z,165
2018-08-09T13:58:57.648Z,135
2018-08-09T14:00:06.575Z,115
2018-08-09T14:01:15.504Z,95
2018-08-09T14:02:24.151Z,85
2018-08-09T14:03:32.805Z,80
2018-08-09T14:04:41.495Z,70
2018-08-09T14:05:50.154Z,60
2018-08-09T14:06:58.804Z,55
2018-08-09T14:08:07.723Z,45
2018-08-09T14:09:16.375Z,40
2018-08-09T14:10:25.033Z,30
2018-08-09T14:11:33.687Z,25
2018-08-09T14:12:42.341Z,20
2018-08-09T14:13:51.266Z,20
2018-08-09T14:14:59.925Z,15
2018-08-09T14:16:08.879Z,15
2018-08-09T14:17:17.505Z,10
2018-08-09T14:18:26.429Z,5
2018-08-09T14:19:35.078Z,5
2018-08-09T14:20:43.738Z,5
2018-08-09T14:21:52.657Z,5
2018-08-09T14:23:01.312Z,5
2018-08-09T14:24:10.238Z,5
2018-08-09T14:25:18.896Z,10
2018-08-09T14:26:27.551Z,10
2018-08-09T14:27:36.204Z,10
2018-08-09T14:28:44.864Z,10
2018-08-09T14:29:53.515Z,15
2018-08-09T14:31:02.171Z,25
2018-08-09T14:32:11.085Z,35
2018-08-09T14:33:20.000Z,45
2018-08-09T14:34:28.658Z,45
2018-08-09T14:35:37.577Z,40
2018-08-09T14:36:46.236Z,40
2018-08-09T14:37:55.536Z,40
2018-08-09T14:39:04.193Z,40
2018-08-09T14:40:12.845Z,40
2018-08-09T14:41:21.497Z,40
2018-08-09T14:42:30.187Z,40
2018-08-09T14:43:38.801Z,45
2018-08-09T14:44:47.456Z,45
2018-08-09T14:45:56.373Z,50
2018-08-09T14:47:05.023Z,50
2018-08-09T14:48:13.678Z,45
2018-08-09T14:49:22.330Z,45
2018-08-09T14:50:30.988Z,45
2018-08-09T14:51:39.646Z,45
2018-08-09T14:52:48.561Z,45
2018-08-09T14:53:57.213Z,45
2018-08-09T14:55:05.863Z,45
2018-08-09T14:56:14.516Z,45
2018-08-09T14:57:23.168Z,45
2018-08-09T14:58:31.819Z,45
2018-08-09T14:59:40.484Z,45
2018-08-09T15:00:49.392Z,45
2018-08-09T15:01:58.038Z,40
2018-08-09T15:03:06.690Z,45
2018-08-09T15:04:15.338Z,45
2018-08-09T15:05:23.993Z,45
2018-08-09T15:06:32.906Z,50
2018-08-09T15:07:41.819Z,50
2018-08-09T15:08:50.475Z,50
2018-08-09T15:09:59.123Z,50
2018-08-09T15:11:07.782Z,50
2018-08-09T15:12:16.424Z,50
2018-08-09T15:13:25.076Z,55
2018-08-09T15:14:33.722Z,55
2018-08-09T15:15:42.425Z,55
2018-08-09T15:16:51.029Z,60
2018-08-09T15:17:59.685Z,70
2018-08-09T15:19:08.339Z,75
2018-08-09T15:20:17.252Z,85
2018-08-09T15:21:26.168Z,95
2018-08-09T15:22:35.773Z,110
2018-08-09T15:23:44.398Z,125
2018-08-09T15:24:53.051Z,140
2018-08-09T15:26:01.705Z,150
2018-08-09T15:27:10.366Z,160
2018-08-09T15:28:19.284Z,165
2018-08-09T15:29:27.924Z,165
2018-08-09T15:30:36.582Z,165
2018-08-09T15:31:45.528Z,170
2018-08-09T15:32:54.451Z,170
2018-08-09T15:34:03.094Z,170
2018-08-09T15:35:12.014Z,170
2018-08-09T15:36:20.658Z,170
2018-08-09T15:37:29.314Z,170
2018-08-09T15:38:37.957Z,170
2018-08-09T15:39:46.609Z,170
2018-08-09T15:40:55.262Z,170
2018-08-09T15:42:03.915Z,170
2018-08-09T15:43:12.562Z,165
2018-08-09T15:44:21.209Z,160
2018-08-09T15:45:30.114Z,160
2018-08-09T15:46:38.766Z,155
2018-08-09T15:47:47.911Z,155
2018-08-09T15:48:56.823Z,155
2018-08-09T15:50:05.476Z,150
2018-08-09T15:51:14.115Z,155
2018-08-09T15:52:22.774Z,160
2018-08-09T15:53:31.681Z,160
2018-08-09T15:54:40.334Z,160
2018-08-09T15:55:48.975Z,165
2018-08-09T15:56:58.032Z,165
2018-08-09T15:58:06.683Z,175
2018-08-09T15:59:15.339Z,160
2018-08-09T16:00:23.983Z,165
2018-08-09T16:01:32.637Z,170
2018-08-09T16:02:41.593Z,180
2018-08-09T16:03:50.472Z,180
2018-08-09T16:04:59.123Z,195
2018-08-09T16:06:07.765Z,205
2018-08-09T16:07:16.425Z,195
2018-08-09T16:08:25.331Z,205
2018-08-09T16:09:33.991Z,205
2018-08-09T16:10:42.633Z,210
2018-08-09T16:11:51.554Z,205
2018-08-09T16:13:00.473Z,205